sensor_id;sensor_type;location;lat;lon;timestamp;pressure;altitude;pressure_sealevel;temperature;humidity
13422;BME280;6782;55.904;13.396;2023-03-01T00:02:14;102468.47;;;-0.79;100.00
13422;BME280;6782;55.904;13.396;2023-03-01T00:05:05;102467.09;;;-1.06;100.00
13422;BME280;6782;55.904;13.396;2023-03-01T00:07:53;102473.84;;;-0.92;100.00
13422;BME280;6782;55.904;13.396;2023-03-01T00:10:40;102488.22;;;-0.81;100.00
13422;BME280;6782;55.904;13.396;2023-03-01T00:13:27;102490.94;;;-0.95;100.00
13422;BME280;6782;55.904;13.396;2023-03-01T00:16:17;102489.88;;;-0.99;100.00
13422;BME280;6782;55.904;13.396;2023-03-01T00:19:07;102504.56;;;-0.82;100.00
13422;BME280;6782;55.904;13.396;2023-03-01T00:21:56;102518.97;;;-0.71;100.00
13422;BME280;6782;55.904;13.396;2023-03-01T00:24:44;102522.63;;;-0.67;100.00
13422;BME280;6782;55.904;13.396;2023-03-01T00:27:31;102509.19;;;-0.76;100.00
13422;BME280;6782;55.904;13.396;2023-03-01T00:30:18;102504.41;;;-0.85;100.00
13422;BME280;6782;55.904;13.396;2023-03-01T00:33:05;102509.47;;;-0.88;100.00
13422;BME280;6782;55.904;13.396;2023-03-01T00:35:52;102511.38;;;-0.84;100.00
13422;BME280;6782;55.904;13.396;2023-03-01T00:38:44;102517.78;;;-0.77;100.00
13422;BME280;6782;55.904;13.396;2023-03-01T00:41:31;102511.53;;;-0.81;100.00
13422;BME280;6782;55.904;13.396;2023-03-01T00:44:20;102521.34;;;-0.75;100.00
13422;BME280;6782;55.904;13.396;2023-03-01T00:47:07;102513.00;;;-0.86;100.00
13422;BME280;6782;55.904;13.396;2023-03-01T00:49:54;102522.72;;;-0.82;100.00
13422;BME280;6782;55.904;13.396;2023-03-01T00:52:42;102518.50;;;-0.80;100.00
13422;BME280;6782;55.904;13.396;2023-03-01T00:55:30;102522.81;;;-0.80;100.00
13422;BME280;6782;55.904;13.396;2023-03-01T00:58:18;102511.91;;;-0.91;100.00
13422;BME280;6782;55.904;13.396;2023-03-01T01:01:09;102514.47;;;-0.91;100.00
13422;BME280;6782;55.904;13.396;2023-03-01T01:04:06;102502.16;;;-0.95;100.00
13422;BME280;6782;55.904;13.396;2023-03-01T01:06:53;102510.78;;;-0.96;100.00
13422;BME280;6782;55.904;13.396;2023-03-01T01:09:41;102513.81;;;-0.87;100.00
13422;BME280;6782;55.904;13.396;2023-03-01T01:12:29;102512.25;;;-1.01;100.00
13422;BME280;6782;55.904;13.396;2023-03-01T01:15:17;102511.91;;;-1.07;100.00
13422;BME280;6782;55.904;13.396;2023-03-01T01:18:04;102512.25;;;-1.01;100.00
13422;BME280;6782;55.904;13.396;2023-03-01T01:20:51;102526.47;;;-0.93;100.00
13422;BME280;6782;55.904;13.396;2023-03-01T01:23:40;102507.13;;;-1.15;100.00
13422;BME280;6782;55.904;13.396;2023-03-01T01:26:29;102520.19;;;-1.14;100.00
13422;BME280;6782;55.904;13.396;2023-03-01T01:29:17;102510.06;;;-1.26;100.00
13422;BME280;6782;55.904;13.396;2023-03-01T01:32:05;102501.00;;;-1.50;100.00
13422;BME280;6782;55.904;13.396;2023-03-01T01:34:52;102523.81;;;-1.27;100.00
13422;BME280;6782;55.904;13.396;2023-03-01T01:37:39;102528.66;;;-1.33;100.00
13422;BME280;6782;55.904;13.396;2023-03-01T01:40:26;102525.50;;;-1.43;100.00
13422;BME280;6782;55.904;13.396;2023-03-01T01:43:19;102523.56;;;-1.63;100.00
13422;BME280;6782;55.904;13.396;2023-03-01T01:46:16;102523.09;;;-1.87;100.00
13422;BME280;6782;55.904;13.396;2023-03-01T01:49:17;102539.97;;;-1.94;100.00
13422;BME280;6782;55.904;13.396;2023-03-01T01:52:10;102555.25;;;-1.67;100.00
13422;BME280;6782;55.904;13.396;2023-03-01T01:55:01;102548.28;;;-1.68;100.00
13422;BME280;6782;55.904;13.396;2023-03-01T01:57:53;102551.34;;;-1.75;100.00
13422;BME280;6782;55.904;13.396;2023-03-01T02:00:41;102572.41;;;-1.37;100.00
13422;BME280;6782;55.904;13.396;2023-03-01T02:03:32;102547.63;;;-1.64;100.00
13422;BME280;6782;55.904;13.396;2023-03-01T02:06:28;102549.06;;;-1.85;100.00
13422;BME280;6782;55.904;13.396;2023-03-01T02:09:18;102563.59;;;-1.87;100.00
13422;BME280;6782;55.904;13.396;2023-03-01T02:12:07;102567.66;;;-1.76;100.00
13422;BME280;6782;55.904;13.396;2023-03-01T02:14:54;102561.69;;;-1.75;100.00
13422;BME280;6782;55.904;13.396;2023-03-01T02:17:41;102558.28;;;-1.74;100.00
13422;BME280;6782;55.904;13.396;2023-03-01T02:20:34;102570.03;;;-1.65;100.00
13422;BME280;6782;55.904;13.396;2023-03-01T02:23:24;102564.88;;;-1.65;100.00
13422;BME280;6782;55.904;13.396;2023-03-01T02:26:18;102567.44;;;-1.65;100.00
13422;BME280;6782;55.904;13.396;2023-03-01T02:29:09;102571.81;;;-1.64;100.00
13422;BME280;6782;55.904;13.396;2023-03-01T02:31:58;102565.59;;;-1.67;100.00
13422;BME280;6782;55.904;13.396;2023-03-01T02:34:47;102580.50;;;-1.47;100.00
13422;BME280;6782;55.904;13.396;2023-03-01T02:37:35;102565.72;;;-1.64;100.00
13422;BME280;6782;55.904;13.396;2023-03-01T02:40:23;102560.63;;;-1.79;100.00
13422;BME280;6782;55.904;13.396;2023-03-01T02:43:12;102577.63;;;-1.68;100.00
13422;BME280;6782;55.904;13.396;2023-03-01T02:46:06;102578.53;;;-1.67;100.00
13422;BME280;6782;55.904;13.396;2023-03-01T02:48:55;102577.22;;;-1.75;100.00
13422;BME280;6782;55.904;13.396;2023-03-01T02:51:52;102577.22;;;-1.75;100.00
13422;BME280;6782;55.904;13.396;2023-03-01T02:54:46;102580.84;;;-1.72;100.00
13422;BME280;6782;55.904;13.396;2023-03-01T02:57:37;102584.13;;;-1.74;100.00
13422;BME280;6782;55.904;13.396;2023-03-01T03:00:28;102578.13;;;-1.90;100.00
13422;BME280;6782;55.904;13.396;2023-03-01T03:03:20;102569.75;;;-2.00;100.00
13422;BME280;6782;55.904;13.396;2023-03-01T03:06:08;102592.91;;;-1.72;100.00
13422;BME280;6782;55.904;13.396;2023-03-01T03:08:55;102571.78;;;-1.95;100.00
13422;BME280;6782;55.904;13.396;2023-03-01T03:11:43;102572.09;;;-2.05;100.00
13422;BME280;6782;55.904;13.396;2023-03-01T03:14:30;102566.59;;;-2.11;100.00
13422;BME280;6782;55.904;13.396;2023-03-01T03:17:20;102562.56;;;-2.06;100.00
13422;BME280;6782;55.904;13.396;2023-03-01T03:20:11;102560.78;;;-2.07;100.00
13422;BME280;6782;55.904;13.396;2023-03-01T03:22:59;102558.75;;;-2.27;100.00
13422;BME280;6782;55.904;13.396;2023-03-01T03:25:48;102555.72;;;-2.20;100.00
13422;BME280;6782;55.904;13.396;2023-03-01T03:28:36;102558.75;;;-2.27;100.00
13422;BME280;6782;55.904;13.396;2023-03-01T03:31:25;102557.50;;;-2.19;100.00
13422;BME280;6782;55.904;13.396;2023-03-01T03:34:12;102560.16;;;-2.17;100.00
13422;BME280;6782;55.904;13.396;2023-03-01T03:37:04;102554.47;;;-2.12;100.00
13422;BME280;6782;55.904;13.396;2023-03-01T03:40:12;102564.63;;;-2.15;100.00
13422;BME280;6782;55.904;13.396;2023-03-01T03:43:01;102570.16;;;-2.09;100.00
13422;BME280;6782;55.904;13.396;2023-03-01T03:45:49;102550.72;;;-2.17;100.00
13422;BME280;6782;55.904;13.396;2023-03-01T03:48:39;102541.66;;;-2.25;100.00
13422;BME280;6782;55.904;13.396;2023-03-01T03:51:26;102543.88;;;-2.31;100.00
13422;BME280;6782;55.904;13.396;2023-03-01T03:54:14;102537.19;;;-2.27;100.00
13422;BME280;6782;55.904;13.396;2023-03-01T03:57:02;102546.03;;;-2.24;100.00
13422;BME280;6782;55.904;13.396;2023-03-01T03:59:50;102541.66;;;-2.25;100.00
13422;BME280;6782;55.904;13.396;2023-03-01T04:02:37;102550.72;;;-2.17;100.00
13422;BME280;6782;55.904;13.396;2023-03-01T04:05:24;102544.78;;;-2.16;100.00
13422;BME280;6782;55.904;13.396;2023-03-01T04:08:12;102535.25;;;-2.31;100.00
13422;BME280;6782;55.904;13.396;2023-03-01T04:11:03;102529.00;;;-2.35;100.00
13422;BME280;6782;55.904;13.396;2023-03-01T04:14:05;102542.91;;;-2.33;100.00
13422;BME280;6782;55.904;13.396;2023-03-01T04:16:52;102543.25;;;-2.27;100.00
13422;BME280;6782;55.904;13.396;2023-03-01T04:19:39;102537.91;;;-2.30;100.00
13422;BME280;6782;55.904;13.396;2023-03-01T04:22:29;102536.13;;;-2.31;100.00
13422;BME280;6782;55.904;13.396;2023-03-01T04:25:18;102542.09;;;-2.32;100.00
13422;BME280;6782;55.904;13.396;2023-03-01T04:28:07;102544.88;;;-2.29;100.00
13422;BME280;6782;55.904;13.396;2023-03-01T04:30:56;102534.00;;;-2.38;100.00
13422;BME280;6782;55.904;13.396;2023-03-01T04:33:45;102544.25;;;-2.39;100.00
13422;BME280;6782;55.904;13.396;2023-03-01T04:36:32;102546.59;;;-2.44;100.00
13422;BME280;6782;55.904;13.396;2023-03-01T04:39:21;102544.16;;;-2.41;100.00
13422;BME280;6782;55.904;13.396;2023-03-01T04:42:08;102553.84;;;-2.22;100.00
13422;BME280;6782;55.904;13.396;2023-03-01T04:44:57;102536.06;;;-2.47;100.00
13422;BME280;6782;55.904;13.396;2023-03-01T04:47:45;102529.19;;;-2.46;100.00
13422;BME280;6782;55.904;13.396;2023-03-01T04:50:33;102528.75;;;-2.39;100.00
13422;BME280;6782;55.904;13.396;2023-03-01T04:53:20;102521.00;;;-2.54;100.00
13422;BME280;6782;55.904;13.396;2023-03-01T04:56:07;102519.84;;;-2.59;100.00
13422;BME280;6782;55.904;13.396;2023-03-01T04:58:54;102515.38;;;-2.62;100.00
13422;BME280;6782;55.904;13.396;2023-03-01T05:01:43;102518.88;;;-2.61;100.00
13422;BME280;6782;55.904;13.396;2023-03-01T05:04:30;102511.03;;;-2.77;100.00
13422;BME280;6782;55.904;13.396;2023-03-01T05:07:17;102494.25;;;-3.13;100.00
13422;BME280;6782;55.904;13.396;2023-03-01T05:10:05;102502.72;;;-3.16;100.00
13422;BME280;6782;55.904;13.396;2023-03-01T05:12:53;102499.59;;;-3.25;100.00
13422;BME280;6782;55.904;13.396;2023-03-01T05:15:40;102503.69;;;-3.28;100.00
13422;BME280;6782;55.904;13.396;2023-03-01T05:18:32;102530.53;;;-2.82;100.00
13422;BME280;6782;55.904;13.396;2023-03-01T05:21:19;102527.22;;;-2.94;100.00
13422;BME280;6782;55.904;13.396;2023-03-01T05:24:08;102543.53;;;-2.81;100.00
13422;BME280;6782;55.904;13.396;2023-03-01T05:26:57;102544.50;;;-2.79;100.00
13422;BME280;6782;55.904;13.396;2023-03-01T05:29:45;102522.78;;;-2.97;100.00
13422;BME280;6782;55.904;13.396;2023-03-01T05:32:32;102530.25;;;-3.01;100.00
13422;BME280;6782;55.904;13.396;2023-03-01T05:35:21;102533.28;;;-3.08;100.00
13422;BME280;6782;55.904;13.396;2023-03-01T05:38:09;102537.94;;;-2.88;100.00
13422;BME280;6782;55.904;13.396;2023-03-01T05:40:58;102536.94;;;-2.90;100.00
13422;BME280;6782;55.904;13.396;2023-03-01T05:43:45;102548.78;;;-2.79;100.00
13422;BME280;6782;55.904;13.396;2023-03-01T05:46:32;102537.56;;;-2.94;100.00
13422;BME280;6782;55.904;13.396;2023-03-01T05:49:20;102537.34;;;-2.97;100.00
13422;BME280;6782;55.904;13.396;2023-03-01T05:52:10;102545.91;;;-2.98;100.00
13422;BME280;6782;55.904;13.396;2023-03-01T05:54:57;102556.44;;;-2.95;100.00
13422;BME280;6782;55.904;13.396;2023-03-01T05:57:46;102553.34;;;-3.18;100.00
13422;BME280;6782;55.904;13.396;2023-03-01T06:00:33;102557.28;;;-3.09;100.00
13422;BME280;6782;55.904;13.396;2023-03-01T06:03:21;102567.81;;;-2.92;100.00
13422;BME280;6782;55.904;13.396;2023-03-01T06:06:08;102578.16;;;-2.77;100.00
13422;BME280;6782;55.904;13.396;2023-03-01T06:08:57;102574.78;;;-2.76;100.00
13422;BME280;6782;55.904;13.396;2023-03-01T06:11:44;102579.78;;;-2.65;100.00
13422;BME280;6782;55.904;13.396;2023-03-01T06:14:31;102568.53;;;-2.80;100.00
13422;BME280;6782;55.904;13.396;2023-03-01T06:17:18;102566.50;;;-2.85;100.00
13422;BME280;6782;55.904;13.396;2023-03-01T06:20:08;102576.13;;;-2.68;100.00
13422;BME280;6782;55.904;13.396;2023-03-01T06:22:56;102580.66;;;-2.64;100.00
13422;BME280;6782;55.904;13.396;2023-03-01T06:25:45;102582.66;;;-2.60;100.00
13422;BME280;6782;55.904;13.396;2023-03-01T06:28:32;102588.69;;;-2.45;100.00
13422;BME280;6782;55.904;13.396;2023-03-01T06:31:19;102595.28;;;-2.50;100.00
13422;BME280;6782;55.904;13.396;2023-03-01T06:34:06;102592.72;;;-2.50;100.00
13422;BME280;6782;55.904;13.396;2023-03-01T06:36:53;102598.66;;;-2.66;100.00
13422;BME280;6782;55.904;13.396;2023-03-01T06:39:41;102600.09;;;-2.56;100.00
13422;BME280;6782;55.904;13.396;2023-03-01T06:42:29;102600.00;;;-2.43;100.00
13422;BME280;6782;55.904;13.396;2023-03-01T06:45:18;102613.63;;;-2.02;100.00
13422;BME280;6782;55.904;13.396;2023-03-01T06:48:06;102609.81;;;-2.23;100.00
13422;BME280;6782;55.904;13.396;2023-03-01T06:50:54;102607.31;;;-2.07;100.00
13422;BME280;6782;55.904;13.396;2023-03-01T06:53:41;102613.13;;;-2.11;100.00
13422;BME280;6782;55.904;13.396;2023-03-01T06:56:28;102620.41;;;-2.04;100.00
13422;BME280;6782;55.904;13.396;2023-03-01T06:59:17;102630.94;;;-2.01;100.00
13422;BME280;6782;55.904;13.396;2023-03-01T07:02:05;102643.19;;;-1.82;100.00
13422;BME280;6782;55.904;13.396;2023-03-01T07:04:52;102635.63;;;-1.94;100.00
13422;BME280;6782;55.904;13.396;2023-03-01T07:07:39;102635.19;;;-1.86;100.00
13422;BME280;6782;55.904;13.396;2023-03-01T07:10:27;102644.25;;;-1.78;100.00
13422;BME280;6782;55.904;13.396;2023-03-01T07:13:14;102641.50;;;-1.81;100.00
13422;BME280;6782;55.904;13.396;2023-03-01T07:16:03;102657.38;;;-1.75;100.00
13422;BME280;6782;55.904;13.396;2023-03-01T07:18:50;102656.19;;;-1.66;100.00
13422;BME280;6782;55.904;13.396;2023-03-01T07:21:37;102666.00;;;-1.60;100.00
13422;BME280;6782;55.904;13.396;2023-03-01T07:24:25;102678.63;;;-1.50;100.00
13422;BME280;6782;55.904;13.396;2023-03-01T07:27:12;102680.06;;;-1.55;100.00
13422;BME280;6782;55.904;13.396;2023-03-01T07:29:59;102686.75;;;-1.59;100.00
13422;BME280;6782;55.904;13.396;2023-03-01T07:32:48;102699.16;;;-1.53;100.00
13422;BME280;6782;55.904;13.396;2023-03-01T07:35:35;102706.44;;;-1.46;100.00
13422;BME280;6782;55.904;13.396;2023-03-01T07:38:22;102712.53;;;-1.31;100.00
13422;BME280;6782;55.904;13.396;2023-03-01T07:41:09;102705.25;;;-1.22;100.00
13422;BME280;6782;55.904;13.396;2023-03-01T07:43:56;102713.38;;;-1.16;100.00
13422;BME280;6782;55.904;13.396;2023-03-01T07:46:44;102726.44;;;-0.82;100.00
13422;BME280;6782;55.904;13.396;2023-03-01T07:49:32;102725.16;;;-0.74;100.00
13422;BME280;6782;55.904;13.396;2023-03-01T07:52:19;102737.06;;;-0.62;100.00
13422;BME280;6782;55.904;13.396;2023-03-01T07:55:07;102726.16;;;-0.72;100.00
13422;BME280;6782;55.904;13.396;2023-03-01T07:57:54;102732.03;;;-0.58;100.00
13422;BME280;6782;55.904;13.396;2023-03-01T08:00:41;102747.09;;;-0.35;100.00
13422;BME280;6782;55.904;13.396;2023-03-01T08:03:28;102755.69;;;-0.04;100.00
13422;BME280;6782;55.904;13.396;2023-03-01T08:06:17;102766.22;;;-0.01;100.00
13422;BME280;6782;55.904;13.396;2023-03-01T08:09:04;102762.38;;;0.09;100.00
13422;BME280;6782;55.904;13.396;2023-03-01T08:11:53;102766.09;;;0.14;100.00
13422;BME280;6782;55.904;13.396;2023-03-01T08:14:41;102775.19;;;0.39;100.00
13422;BME280;6782;55.904;13.396;2023-03-01T08:17:28;102772.88;;;0.61;100.00
13422;BME280;6782;55.904;13.396;2023-03-01T08:20:15;102773.47;;;0.56;100.00
13422;BME280;6782;55.904;13.396;2023-03-01T08:23:04;102779.47;;;0.73;100.00
13422;BME280;6782;55.904;13.396;2023-03-01T08:25:51;102777.03;;;0.76;100.00
13422;BME280;6782;55.904;13.396;2023-03-01T08:28:39;102777.00;;;0.93;100.00
13422;BME280;6782;55.904;13.396;2023-03-01T08:31:28;102775.91;;;0.88;100.00
13422;BME280;6782;55.904;13.396;2023-03-01T08:34:17;102790.22;;;0.98;100.00
13422;BME280;6782;55.904;13.396;2023-03-01T08:37:05;102788.22;;;1.10;100.00
13422;BME280;6782;55.904;13.396;2023-03-01T08:39:54;102780.69;;;1.16;100.00
13422;BME280;6782;55.904;13.396;2023-03-01T08:42:41;102777.28;;;1.17;100.00
13422;BME280;6782;55.904;13.396;2023-03-01T08:45:29;102780.28;;;1.07;100.00
13422;BME280;6782;55.904;13.396;2023-03-01T08:48:16;102792.09;;;1.37;100.00
13422;BME280;6782;55.904;13.396;2023-03-01T08:51:07;102778.00;;;1.32;100.00
13422;BME280;6782;55.904;13.396;2023-03-01T08:53:55;102794.25;;;1.65;100.00
13422;BME280;6782;55.904;13.396;2023-03-01T08:56:44;102785.19;;;1.74;100.00
13422;BME280;6782;55.904;13.396;2023-03-01T08:59:31;102791.06;;;1.89;100.00
13422;BME280;6782;55.904;13.396;2023-03-01T09:02:22;102785.63;;;2.04;100.00
13422;BME280;6782;55.904;13.396;2023-03-01T09:05:09;102787.06;;;2.17;100.00
13422;BME280;6782;55.904;13.396;2023-03-01T09:07:57;102787.47;;;2.26;100.00
13422;BME280;6782;55.904;13.396;2023-03-01T09:10:44;102794.19;;;2.41;100.00
13422;BME280;6782;55.904;13.396;2023-03-01T09:13:33;102790.00;;;2.45;100.00
13422;BME280;6782;55.904;13.396;2023-03-01T09:16:21;102789.34;;;2.49;100.00
13422;BME280;6782;55.904;13.396;2023-03-01T09:19:09;102786.19;;;2.58;100.00
13422;BME280;6782;55.904;13.396;2023-03-01T09:21:56;102779.88;;;2.51;100.00
13422;BME280;6782;55.904;13.396;2023-03-01T09:24:44;102768.91;;;2.60;100.00
13422;BME280;6782;55.904;13.396;2023-03-01T09:27:31;102775.09;;;2.82;100.00
13422;BME280;6782;55.904;13.396;2023-03-01T09:30:22;102777.75;;;3.06;100.00
13422;BME280;6782;55.904;13.396;2023-03-01T09:33:09;102768.41;;;3.11;100.00
13422;BME280;6782;55.904;13.396;2023-03-01T09:36:02;102758.53;;;3.25;100.00
13422;BME280;6782;55.904;13.396;2023-03-01T09:38:50;102747.97;;;3.22;100.00
13422;BME280;6782;55.904;13.396;2023-03-01T09:41:44;102744.03;;;3.31;100.00
13422;BME280;6782;55.904;13.396;2023-03-01T09:44:37;102733.03;;;3.40;100.00
13422;BME280;6782;55.904;13.396;2023-03-01T09:47:29;102737.72;;;3.72;100.00
13422;BME280;6782;55.904;13.396;2023-03-01T09:50:18;102717.28;;;3.60;100.00
13422;BME280;6782;55.904;13.396;2023-03-01T09:53:09;102715.72;;;3.89;100.00
13422;BME280;6782;55.904;13.396;2023-03-01T09:56:00;102703.44;;;3.87;100.00
13422;BME280;6782;55.904;13.396;2023-03-01T09:58:52;102694.56;;;4.07;100.00
13422;BME280;6782;55.904;13.396;2023-03-01T10:01:44;102669.25;;;4.04;100.00
13422;BME280;6782;55.904;13.396;2023-03-01T10:04:44;102652.00;;;4.09;100.00
13422;BME280;6782;55.904;13.396;2023-03-01T10:07:38;102640.84;;;4.13;100.00
13422;BME280;6782;55.904;13.396;2023-03-01T10:10:33;102626.22;;;4.18;100.00
13422;BME280;6782;55.904;13.396;2023-03-01T10:13:24;102610.56;;;4.18;100.00
13422;BME280;6782;55.904;13.396;2023-03-01T10:16:15;102605.50;;;4.24;100.00
13422;BME280;6782;55.904;13.396;2023-03-01T10:19:10;102606.84;;;4.67;100.00
13422;BME280;6782;55.904;13.396;2023-03-01T10:22:07;102591.16;;;4.95;100.00
13422;BME280;6782;55.904;13.396;2023-03-01T10:24:59;102585.06;;;4.96;100.00
13422;BME280;6782;55.904;13.396;2023-03-01T10:27:52;102570.34;;;4.98;100.00
13422;BME280;6782;55.904;13.396;2023-03-01T10:30:40;102543.16;;;4.93;100.00
13422;BME280;6782;55.904;13.396;2023-03-01T10:33:31;102528.84;;;5.12;100.00
13422;BME280;6782;55.904;13.396;2023-03-01T10:36:19;102494.56;;;5.01;100.00
13422;BME280;6782;55.904;13.396;2023-03-01T10:39:15;102483.66;;;5.16;100.00
13422;BME280;6782;55.904;13.396;2023-03-01T10:42:05;102467.56;;;5.35;100.00
13422;BME280;6782;55.904;13.396;2023-03-01T10:44:52;102427.72;;;5.11;100.00
13422;BME280;6782;55.904;13.396;2023-03-01T10:47:40;102425.59;;;5.66;100.00
13422;BME280;6782;55.904;13.396;2023-03-01T10:50:28;102394.03;;;5.60;100.00
13422;BME280;6782;55.904;13.396;2023-03-01T10:53:26;102378.13;;;5.87;100.00
13422;BME280;6782;55.904;13.396;2023-03-01T10:56:16;102335.66;;;5.62;100.00
13422;BME280;6782;55.904;13.396;2023-03-01T10:59:04;102320.00;;;6.03;100.00
13422;BME280;6782;55.904;13.396;2023-03-01T11:02:13;102286.03;;;6.09;100.00
13422;BME280;6782;55.904;13.396;2023-03-01T11:05:16;102239.69;;;6.03;100.00
13422;BME280;6782;55.904;13.396;2023-03-01T11:08:05;102223.56;;;6.30;100.00
13422;BME280;6782;55.904;13.396;2023-03-01T11:11:04;102179.94;;;6.32;100.00
13422;BME280;6782;55.904;13.396;2023-03-01T11:13:58;102155.25;;;6.73;100.00
13422;BME280;6782;55.904;13.396;2023-03-01T11:16:48;102117.06;;;6.90;100.00
13422;BME280;6782;55.904;13.396;2023-03-01T11:19:36;102049.56;;;6.74;100.00
13422;BME280;6782;55.904;13.396;2023-03-01T11:22:23;102034.16;;;7.02;100.00
13422;BME280;6782;55.904;13.396;2023-03-01T11:25:12;101987.84;;;7.05;100.00
13422;BME280;6782;55.904;13.396;2023-03-01T11:28:01;101936.13;;;6.90;100.00
13422;BME280;6782;55.904;13.396;2023-03-01T11:30:56;101894.09;;;6.84;100.00
13422;BME280;6782;55.904;13.396;2023-03-01T11:33:48;101878.38;;;6.84;100.00
13422;BME280;6782;55.904;13.396;2023-03-01T11:36:41;101859.34;;;7.07;100.00
13422;BME280;6782;55.904;13.396;2023-03-01T11:39:37;101840.25;;;7.23;100.00
13422;BME280;6782;55.904;13.396;2023-03-01T11:42:33;101831.66;;;7.48;100.00
13422;BME280;6782;55.904;13.396;2023-03-01T11:45:30;101787.06;;;7.51;100.00
13422;BME280;6782;55.904;13.396;2023-03-01T11:48:36;101731.06;;;7.49;100.00
13422;BME280;6782;55.904;13.396;2023-03-01T11:51:40;101731.19;;;7.81;100.00
13422;BME280;6782;55.904;13.396;2023-03-01T11:54:38;101691.81;;;7.78;100.00
13422;BME280;6782;55.904;13.396;2023-03-01T11:57:42;101650.66;;;7.81;100.00
13422;BME280;6782;55.904;13.396;2023-03-01T12:00:43;101610.44;;;7.88;100.00
13422;BME280;6782;55.904;13.396;2023-03-01T12:03:45;101576.31;;;8.03;100.00
13422;BME280;6782;55.904;13.396;2023-03-01T12:06:51;101527.25;;;7.99;100.00
13422;BME280;6782;55.904;13.396;2023-03-01T12:09:48;101487.84;;;8.02;100.00
13422;BME280;6782;55.904;13.396;2023-03-01T12:12:53;101449.34;;;8.03;100.00
13422;BME280;6782;55.904;13.396;2023-03-01T12:15:53;101419.50;;;8.22;100.00
13422;BME280;6782;55.904;13.396;2023-03-01T12:19:10;101400.22;;;8.32;100.00
13422;BME280;6782;55.904;13.396;2023-03-01T12:22:13;101342.38;;;8.38;100.00
13422;BME280;6782;55.904;13.396;2023-03-01T12:25:16;101362.41;;;8.62;100.00
13422;BME280;6782;55.904;13.396;2023-03-01T12:28:31;101292.44;;;8.38;100.00
13422;BME280;6782;55.904;13.396;2023-03-01T12:31:41;101276.59;;;8.55;100.00
13422;BME280;6782;55.904;13.396;2023-03-01T12:34:46;101282.56;;;8.73;100.00
13422;BME280;6782;55.904;13.396;2023-03-01T12:37:50;101244.84;;;8.79;100.00
13422;BME280;6782;55.904;13.396;2023-03-01T12:41:11;101185.28;;;8.75;100.00
13422;BME280;6782;55.904;13.396;2023-03-01T12:44:11;101176.41;;;8.85;100.00
13422;BME280;6782;55.904;13.396;2023-03-01T12:47:10;101149.13;;;8.98;100.00
13422;BME280;6782;55.904;13.396;2023-03-01T12:50:10;101072.13;;;8.81;100.00
13422;BME280;6782;55.904;13.396;2023-03-01T12:52:59;101016.03;;;8.82;100.00
13422;BME280;6782;55.904;13.396;2023-03-01T12:55:46;100997.56;;;8.88;100.00
13422;BME280;6782;55.904;13.396;2023-03-01T12:58:38;100990.41;;;8.96;100.00
13422;BME280;6782;55.904;13.396;2023-03-01T13:01:36;100878.31;;;8.86;100.00
13422;BME280;6782;55.904;13.396;2023-03-01T13:04:35;100936.81;;;9.05;100.00
13422;BME280;6782;55.904;13.396;2023-03-01T13:07:34;100949.78;;;9.18;100.00
13422;BME280;6782;55.904;13.396;2023-03-01T13:10:30;100912.94;;;9.18;100.00
13422;BME280;6782;55.904;13.396;2023-03-01T13:13:21;100901.53;;;9.18;100.00
13422;BME280;6782;55.904;13.396;2023-03-01T13:16:39;100845.50;;;9.13;100.00
13422;BME280;6782;55.904;13.396;2023-03-01T13:19:29;100767.94;;;8.83;100.00
13422;BME280;6782;55.904;13.396;2023-03-01T13:22:31;100797.75;;;8.82;100.00
13422;BME280;6782;55.904;13.396;2023-03-01T13:25:20;100896.34;;;9.12;100.00
13422;BME280;6782;55.904;13.396;2023-03-01T13:31:58;100839.63;;;8.94;100.00
13422;BME280;6782;55.904;13.396;2023-03-01T13:34:52;100909.56;;;9.10;100.00
13422;BME280;6782;55.904;13.396;2023-03-01T13:37:42;100780.13;;;8.87;100.00
13422;BME280;6782;55.904;13.396;2023-03-01T13:40:58;100814.13;;;9.01;100.00
13422;BME280;6782;55.904;13.396;2023-03-01T13:43:46;100776.75;;;8.79;100.00
13422;BME280;6782;55.904;13.396;2023-03-01T13:46:35;100926.84;;;9.26;100.00
13422;BME280;6782;55.904;13.396;2023-03-01T13:49:26;100883.84;;;9.27;100.00
13422;BME280;6782;55.904;13.396;2023-03-01T13:52:32;100765.69;;;9.12;100.00
13422;BME280;6782;55.904;13.396;2023-03-01T13:55:27;100690.63;;;8.93;100.00
13422;BME280;6782;55.904;13.396;2023-03-01T13:58:21;100732.63;;;8.96;100.00
13422;BME280;6782;55.904;13.396;2023-03-01T14:01:21;100882.88;;;9.34;100.00
13422;BME280;6782;55.904;13.396;2023-03-01T14:04:21;100748.06;;;9.17;100.00
13422;BME280;6782;55.904;13.396;2023-03-01T14:07:10;100664.25;;;8.98;100.00
13422;BME280;6782;55.904;13.396;2023-03-01T14:10:00;100631.06;;;8.89;100.00
13422;BME280;6782;55.904;13.396;2023-03-01T14:12:52;100745.56;;;9.10;100.00
13422;BME280;6782;55.904;13.396;2023-03-01T14:15:45;100746.66;;;8.98;100.00
13422;BME280;6782;55.904;13.396;2023-03-01T14:18:43;100835.94;;;9.07;100.00
13422;BME280;6782;55.904;13.396;2023-03-01T14:21:35;100815.13;;;8.92;100.00
13422;BME280;6782;55.904;13.396;2023-03-01T14:24:23;100860.78;;;8.88;100.00
13422;BME280;6782;55.904;13.396;2023-03-01T14:27:11;100906.44;;;8.81;100.00
13422;BME280;6782;55.904;13.396;2023-03-01T14:30:02;101025.53;;;8.92;100.00
13422;BME280;6782;55.904;13.396;2023-03-01T14:32:54;100965.41;;;8.63;100.00
13422;BME280;6782;55.904;13.396;2023-03-01T14:35:42;101050.28;;;8.77;100.00
13422;BME280;6782;55.904;13.396;2023-03-01T14:38:33;101113.31;;;8.85;100.00
13422;BME280;6782;55.904;13.396;2023-03-01T14:41:23;100981.09;;;8.72;100.00
13422;BME280;6782;55.904;13.396;2023-03-01T14:44:15;100857.66;;;8.62;100.00
13422;BME280;6782;55.904;13.396;2023-03-01T14:47:05;100673.09;;;8.42;100.00
13422;BME280;6782;55.904;13.396;2023-03-01T14:49:57;100751.97;;;8.39;100.00
13422;BME280;6782;55.904;13.396;2023-03-01T14:52:47;100849.25;;;8.33;100.00